DECPP EDHI-EDHI
Flight info
| Callsign | DECPP |
|---|---|
| Flight time | 0h 11m |
| Altitude | |
| Route | |
| Aircraft | DR |
Departure
| Time | 2026-04-22 13:08 |
|---|---|
| Airport | Hamburg-Finkenwerder Airport (EDHI) |
Arrival
| Time | 2026-04-22 13:19 |
|---|---|
| Airport | Hamburg-Finkenwerder Airport (EDHI) |
| Time | Latitude | Longitude | Altitude | Speed | Heading |
|---|---|---|---|---|---|
| 2026-04-22 13:00 | 53.53883 | 9.83776 | 44 ft | 0 kts | 141° |
| 2026-04-22 13:04 | 53.53877 | 9.83777 | 17 ft | 3 kts | 200° |
| 2026-04-22 13:04 | 53.53875 | 9.83761 | 17 ft | 1 kts | 300° |
| 2026-04-22 13:04 | 53.53879 | 9.83731 | 17 ft | 9 kts | 267° |
| 2026-04-22 13:05 | 53.53843 | 9.83623 | 17 ft | 13 kts | 185° |
| 2026-04-22 13:05 | 53.53772 | 9.83663 | 16 ft | 0 kts | 157° |
| 2026-04-22 13:06 | 53.53752 | 9.83676 | 16 ft | 14 kts | 163° |
| 2026-04-22 13:06 | 53.53675 | 9.83724 | 15 ft | 15 kts | 159° |
| 2026-04-22 13:06 | 53.53618 | 9.83736 | 14 ft | 5 kts | 229° |
| 2026-04-22 13:06 | 53.53617 | 9.83734 | 14 ft | 0 kts | 231° |
| 2026-04-22 13:07 | 53.53599 | 9.83695 | 14 ft | 24 kts | 232° |
| 2026-04-22 13:07 | 53.53377 | 9.83234 | 76 ft | 66 kts | 237° |
| 2026-04-22 13:08 | 53.53073 | 9.82582 | 290 ft | 75 kts | 237° |
| 2026-04-22 13:08 | 53.52745 | 9.81839 | 524 ft | 84 kts | 237° |
| 2026-04-22 13:08 | 53.52392 | 9.81081 | 694 ft | 79 kts | 235° |
| 2026-04-22 13:08 | 53.51893 | 9.80730 | 731 ft | 82 kts | 183° |
| 2026-04-22 13:09 | 53.51306 | 9.80999 | 785 ft | 87 kts | 165° |
| 2026-04-22 13:09 | 53.50961 | 9.81779 | 874 ft | 90 kts | 84° |
| 2026-04-22 13:09 | 53.51172 | 9.82757 | 871 ft | 90 kts | 60° |
| 2026-04-22 13:09 | 53.51447 | 9.83690 | 960 ft | 88 kts | 55° |
| 2026-04-22 13:10 | 53.51761 | 9.84538 | 1046 ft | 85 kts | 50° |
| 2026-04-22 13:10 | 53.52155 | 9.85329 | 1005 ft | 89 kts | 45° |
| 2026-04-22 13:10 | 53.52598 | 9.86081 | 997 ft | 90 kts | 38° |
| 2026-04-22 13:10 | 53.53087 | 9.86775 | 971 ft | 93 kts | 32° |
| 2026-04-22 13:11 | 53.53611 | 9.87415 | 915 ft | 92 kts | 25° |
| 2026-04-22 13:11 | 53.54157 | 9.87581 | 833 ft | 81 kts | 315° |
| 2026-04-22 13:11 | 53.54397 | 9.86721 | 674 ft | 76 kts | 292° |
| 2026-04-22 13:11 | 53.54601 | 9.85934 | 479 ft | 70 kts | 278° |
| 2026-04-22 13:12 | 53.54346 | 9.85303 | 256 ft | 68 kts | 235° |
| 2026-04-22 13:12 | 53.54048 | 9.84665 | 137 ft | 69 kts | 239° |
| 2026-04-22 13:12 | 53.53774 | 9.84070 | 24 ft | 55 kts | 240° |
| 2026-04-22 13:12 | 53.53531 | 9.83554 | 60 ft | 67 kts | 239° |
| 2026-04-22 13:13 | 53.53217 | 9.82892 | 258 ft | 77 kts | 238° |
| 2026-04-22 13:13 | 53.52891 | 9.82180 | 519 ft | 78 kts | 240° |
| 2026-04-22 13:13 | 53.52552 | 9.81378 | 716 ft | 88 kts | 239° |
| 2026-04-22 13:13 | 53.52135 | 9.80652 | 796 ft | 89 kts | 201° |
| 2026-04-22 13:14 | 53.51517 | 9.80570 | 862 ft | 89 kts | 191° |
| 2026-04-22 13:14 | 53.50887 | 9.80524 | 878 ft | 94 kts | 188° |
| 2026-04-22 13:14 | 53.50281 | 9.80811 | 981 ft | 91 kts | 135° |
| 2026-04-22 13:14 | 53.50058 | 9.81715 | 1123 ft | 83 kts | 96° |
| 2026-04-22 13:15 | 53.49965 | 9.82671 | 1213 ft | 83 kts | 89° |
| 2026-04-22 13:15 | 53.49910 | 9.83648 | 1271 ft | 86 kts | 88° |
| 2026-04-22 13:15 | 53.49987 | 9.84625 | 1311 ft | 83 kts | 54° |
| 2026-04-22 13:15 | 53.50311 | 9.85415 | 1377 ft | 82 kts | 45° |
| 2026-04-22 13:16 | 53.50688 | 9.86142 | 1429 ft | 83 kts | 44° |
| 2026-04-22 13:16 | 53.51060 | 9.86883 | 1486 ft | 83 kts | 47° |
| 2026-04-22 13:16 | 53.51431 | 9.87650 | 1515 ft | 86 kts | 45° |
| 2026-04-22 13:16 | 53.51823 | 9.88456 | 1553 ft | 90 kts | 41° |
| 2026-04-22 13:17 | 53.52248 | 9.89233 | 1533 ft | 90 kts | 40° |
| 2026-04-22 13:17 | 53.52693 | 9.89954 | 1569 ft | 91 kts | 36° |
| 2026-04-22 13:17 | 53.53176 | 9.90618 | 1594 ft | 88 kts | 15° |
| 2026-04-22 13:17 | 53.53736 | 9.90428 | 1492 ft | 85 kts | 317° |
| 2026-04-22 13:18 | 53.54077 | 9.89687 | 1362 ft | 73 kts | 309° |
| 2026-04-22 13:18 | 53.54367 | 9.89065 | 1214 ft | 64 kts | 309° |
| 2026-04-22 13:18 | 53.54633 | 9.88485 | 1045 ft | 59 kts | 311° |
| 2026-04-22 13:18 | 53.54913 | 9.87884 | 907 ft | 71 kts | 307° |
| 2026-04-22 13:19 | 53.55100 | 9.87130 | 731 ft | 75 kts | 261° |
| 2026-04-22 13:19 | 53.54846 | 9.86396 | 545 ft | 69 kts | 238° |
| 2026-04-22 13:19 | 53.54562 | 9.85781 | 379 ft | 63 kts | 235° |
| 2026-04-22 13:19 | 53.54343 | 9.85315 | 254 ft | 44 kts | 238° |
| 2026-04-22 13:20 | 53.54143 | 9.84878 | 189 ft | 48 kts | 240° |
| 2026-04-22 13:20 | 53.53944 | 9.84445 | 122 ft | 47 kts | 242° |
| 2026-04-22 13:20 | 53.53750 | 9.84036 | 82 ft | 42 kts | 243° |
| 2026-04-22 13:20 | 53.53563 | 9.83627 | 67 ft | 47 kts | 242° |
| 2026-04-22 13:21 | 53.53347 | 9.83176 | 56 ft | 52 kts | 238° |
| 2026-04-22 13:21 | 53.53125 | 9.82700 | 62 ft | 52 kts | 239° |
| 2026-04-22 13:21 | 53.52906 | 9.82260 | 163 ft | 49 kts | 240° |
| 2026-04-22 13:21 | 53.52682 | 9.81853 | 335 ft | 49 kts | 235° |
| 2026-04-22 13:22 | 53.52440 | 9.81386 | 474 ft | 54 kts | 243° |
| 2026-04-22 13:22 | 53.52225 | 9.80864 | 559 ft | 57 kts | 246° |
| 2026-04-22 13:22 | 53.52087 | 9.80289 | 658 ft | 51 kts | 251° |
| 2026-04-22 13:22 | 53.51977 | 9.79660 | 732 ft | 57 kts | 263° |
| 2026-04-22 13:23 | 53.51857 | 9.79014 | 803 ft | 61 kts | 251° |
| 2026-04-22 13:23 | 53.51659 | 9.78329 | 972 ft | 71 kts | 253° |
| 2026-04-22 13:23 | 53.51409 | 9.77633 | 1273 ft | 71 kts | 243° |
| 2026-04-22 13:23 | 53.51074 | 9.76979 | 1542 ft | 72 kts | 239° |
| 2026-04-22 13:24 | 53.50725 | 9.76299 | 1757 ft | 83 kts | 240° |
| 2026-04-22 13:24 | 53.50261 | 9.75551 | 1840 ft | 108 kts | 200° |
| 2026-04-22 13:24 | 53.49578 | 9.76040 | 1924 ft | 113 kts | 133° |
| 2026-04-22 13:24 | 53.49197 | 9.77180 | 1816 ft | 114 kts | 102° |
| 2026-04-22 13:25 | 53.49205 | 9.78450 | 1807 ft | 105 kts | 73° |
| 2026-04-22 13:25 | 53.49382 | 9.79644 | 1942 ft | 102 kts | 66° |
| 2026-04-22 13:25 | 53.49573 | 9.80750 | 2128 ft | 99 kts | 65° |
| 2026-04-22 13:25 | 53.49777 | 9.81833 | 2229 ft | 94 kts | 65° |
| 2026-04-22 13:26 | 53.50011 | 9.82859 | 2288 ft | 95 kts | 61° |
| 2026-04-22 13:26 | 53.50299 | 9.83853 | 2247 ft | 94 kts | 51° |
| 2026-04-22 13:26 | 53.50694 | 9.84760 | 2247 ft | 93 kts | 51° |
| 2026-04-22 13:26 | 53.51056 | 9.85657 | 2245 ft | 96 kts | 43° |
| 2026-04-22 13:27 | 53.51567 | 9.86436 | 2129 ft | 93 kts | 23° |
| 2026-04-22 13:27 | 53.51939 | 9.86125 | 2085 ft | 73 kts | 266° |
| 2026-04-22 13:27 | 53.51497 | 9.85866 | 1987 ft | 80 kts | 138° |
| 2026-04-22 13:27 | 53.51623 | 9.86509 | 1884 ft | 64 kts | 353° |
| 2026-04-22 13:28 | 53.51758 | 9.85969 | 1777 ft | 66 kts | 243° |
| 2026-04-22 13:28 | 53.51311 | 9.85798 | 1688 ft | 79 kts | 140° |
| 2026-04-22 13:28 | 53.51222 | 9.86582 | 1641 ft | 71 kts | 43° |
| 2026-04-22 13:28 | 53.51518 | 9.86363 | 1595 ft | 66 kts | 259° |
| 2026-04-22 13:29 | 53.51118 | 9.86297 | 1514 ft | 77 kts | 116° |
| 2026-04-22 13:29 | 53.51351 | 9.86733 | 1478 ft | 58 kts | 322° |
| 2026-04-22 13:29 | 53.51208 | 9.86225 | 1449 ft | 74 kts | 180° |
| 2026-04-22 13:29 | 53.51061 | 9.86825 | 1416 ft | 65 kts | 30° |
| 2026-04-22 13:30 | 53.51374 | 9.86661 | 1463 ft | 62 kts | 280° |
| 2026-04-22 13:30 | 53.51012 | 9.86362 | 1458 ft | 73 kts | 150° |
| 2026-04-22 13:30 | 53.51003 | 9.86999 | 1428 ft | 58 kts | 8° |
| 2026-04-22 13:30 | 53.51171 | 9.86547 | 1444 ft | 63 kts | 246° |
| 2026-04-22 13:31 | 53.50758 | 9.86572 | 1358 ft | 79 kts | 113° |
| 2026-04-22 13:31 | 53.50947 | 9.87196 | 1389 ft | 59 kts | 356° |
| 2026-04-22 13:31 | 53.51178 | 9.86740 | 1440 ft | 60 kts | 259° |
| 2026-04-22 13:31 | 53.50797 | 9.86547 | 1408 ft | 72 kts | 136° |
| 2026-04-22 13:32 | 53.50826 | 9.87247 | 1415 ft | 59 kts | 27° |
| 2026-04-22 13:32 | 53.51105 | 9.87108 | 1456 ft | 52 kts | 286° |
| 2026-04-22 13:32 | 53.50815 | 9.86724 | 1457 ft | 73 kts | 165° |
| 2026-04-22 13:32 | 53.50707 | 9.87399 | 1374 ft | 68 kts | 25° |
| 2026-04-22 13:33 | 53.50907 | 9.87059 | 1379 ft | 69 kts | 242° |
| 2026-04-22 13:33 | 53.50473 | 9.87198 | 1351 ft | 80 kts | 102° |
| 2026-04-22 13:33 | 53.50709 | 9.87901 | 1337 ft | 70 kts | 37° |
| 2026-04-22 13:33 | 53.51118 | 9.88384 | 1291 ft | 76 kts | 21° |
| 2026-04-22 13:34 | 53.51644 | 9.88662 | 1229 ft | 84 kts | 7° |
| 2026-04-22 13:34 | 53.52255 | 9.88824 | 1159 ft | 91 kts | 4° |
| 2026-04-22 13:34 | 53.52892 | 9.88935 | 1096 ft | 90 kts | 358° |
| 2026-04-22 13:34 | 53.53509 | 9.88856 | 990 ft | 88 kts | 333° |
| 2026-04-22 13:35 | 53.53889 | 9.88149 | 908 ft | 78 kts | 305° |
| 2026-04-22 13:35 | 53.54144 | 9.87401 | 764 ft | 71 kts | 301° |
| 2026-04-22 13:35 | 53.54376 | 9.86709 | 584 ft | 70 kts | 300° |
| 2026-04-22 13:35 | 53.54595 | 9.86031 | 479 ft | 58 kts | 284° |
| 2026-04-22 13:36 | 53.54403 | 9.85438 | 321 ft | 61 kts | 237° |
| 2026-04-22 13:36 | 53.54165 | 9.84923 | 159 ft | 49 kts | 238° |
| 2026-04-22 13:36 | 53.53960 | 9.84474 | 57 ft | 48 kts | 239° |
| 2026-04-22 13:36 | 53.53774 | 9.84061 | 16 ft | 35 kts | 230° |
| 2026-04-22 13:37 | 53.53649 | 9.83791 | 14 ft | 18 kts | 254° |
| 2026-04-22 13:37 | 53.53706 | 9.83706 | 16 ft | 14 kts | 338° |
| 2026-04-22 13:37 | 53.53768 | 9.83666 | 16 ft | 5 kts | 339° |
| 2026-04-22 13:37 | 53.53769 | 9.83666 | 16 ft | 0 kts | 338° |
| 2026-04-22 13:38 | 53.53769 | 9.83665 | 16 ft | 1 kts | 338° |
| 2026-04-22 13:38 | 53.53905 | 9.83702 | 17 ft | 10 kts | 50° |
| 2026-04-22 13:38 | 53.53956 | 9.83811 | 17 ft | 6 kts | 50° |
| 2026-04-22 13:39 | 53.53941 | 9.83869 | 17 ft | 7 kts | 143° |
| 2026-04-22 13:39 | 53.53931 | 9.83882 | 17 ft | 0 kts | 144° |